Time;durP1;ratioP1;P1;durP2;ratioP2;P2;SDS_P1;SDS_P2;PMS_P1;PMS_P2;Temp;Humidity;BMP_temperature;BMP_pressure;BME280_temperature;BME280_humidity;BME280_pressure;Samples;Min_cycle;Max_cycle;Signal;HPM_P1;HPM_P2
2022/06/15 00:00:54;;;;;;;7.27;6.57;;;;;;;;;;5055270;28;20411;-78
2022/06/15 00:03:21;;;;;;;7.87;6.90;;;;;;;;;;5054971;28;20404;-77
2022/06/15 00:05:47;;;;;;;7.93;6.50;;;;;;;;;;5055053;28;20436;-78
2022/06/15 00:08:13;;;;;;;7.47;6.13;;;;;;;;;;5054974;28;20387;-78
2022/06/15 00:10:41;;;;;;;7.80;6.53;;;;;;;;;;5055329;28;20809;-78
2022/06/15 00:13:07;;;;;;;8.53;6.60;;;;;;;;;;5054609;28;20409;-78
2022/06/15 00:15:34;;;;;;;10.70;6.80;;;;;;;;;;5054861;28;20438;-78
2022/06/15 00:18:00;;;;;;;7.27;6.03;;;;;;;;;;5054944;28;20437;-77
2022/06/15 00:20:26;;;;;;;7.53;6.80;;;;;;;;;;5053655;28;20404;-77
2022/06/15 00:22:52;;;;;;;7.10;6.40;;;;;;;;;;5054443;28;20407;-78
2022/06/15 00:25:18;;;;;;;7.00;5.73;;;;;;;;;;5054538;28;20478;-77
2022/06/15 00:27:44;;;;;;;6.70;6.00;;;;;;;;;;5054724;28;20477;-77
2022/06/15 00:30:11;;;;;;;9.53;6.20;;;;;;;;;;5054515;28;20474;-77
2022/06/15 00:32:37;;;;;;;8.50;7.30;;;;;;;;;;5054477;28;20566;-77
2022/06/15 00:35:03;;;;;;;12.83;7.60;;;;;;;;;;5054129;28;20428;-77
2022/06/15 00:37:29;;;;;;;10.73;6.33;;;;;;;;;;5053069;28;20522;-77
2022/06/15 00:39:55;;;;;;;8.33;6.80;;;;;;;;;;5054533;28;20383;-77
2022/06/15 00:42:21;;;;;;;8.37;7.23;;;;;;;;;;5054667;28;20406;-77
2022/06/15 00:44:49;;;;;;;11.27;7.67;;;;;;;;;;5054071;28;20399;-77
2022/06/15 00:47:44;;;;;;;9.13;7.57;;;;;;;;;;5054192;28;20397;-77
2022/06/15 00:50:12;;;;;;;11.93;7.27;;;;;;;;;;5049676;28;20511;-77
2022/06/15 00:52:44;;;;;;;7.87;6.87;;;;;;;;;;5054350;28;20841;-77
2022/06/15 00:55:13;;;;;;;9.43;8.47;;;;;;;;;;5053724;28;20808;-77
2022/06/15 00:57:39;;;;;;;10.40;7.37;;;;;;;;;;5053877;28;20786;-77
2022/06/15 01:00:06;;;;;;;11.87;7.43;;;;;;;;;;5053560;28;20415;-77
2022/06/15 01:02:36;;;;;;;9.70;7.97;;;;;;;;;;5054028;28;20379;-77
2022/06/15 01:05:06;;;;;;;9.20;7.70;;;;;;;;;;5053634;28;20431;-77
2022/06/15 01:07:47;;;;;;;12.13;9.00;;;;;;;;;;5053890;28;20775;-77
2022/06/15 01:10:14;;;;;;;10.60;6.97;;;;;;;;;;5053758;28;20397;-77
2022/06/15 01:12:59;;;;;;;10.70;7.87;;;;;;;;;;5053787;28;20408;-77
2022/06/15 01:15:38;;;;;;;11.57;7.30;;;;;;;;;;5053550;28;20424;-77
2022/06/15 01:18:04;;;;;;;7.77;7.17;;;;;;;;;;5053672;28;20462;-77
2022/06/15 01:20:30;;;;;;;8.80;8.00;;;;;;;;;;5053688;28;20405;-77
2022/06/15 01:23:06;;;;;;;9.37;7.77;;;;;;;;;;5053362;28;20470;-78
2022/06/15 01:25:35;;;;;;;10.07;7.30;;;;;;;;;;5053330;28;20856;-77
2022/06/15 01:28:01;;;;;;;7.50;6.63;;;;;;;;;;5053580;28;20383;-77
2022/06/15 01:30:40;;;;;;;10.70;6.90;;;;;;;;;;5053418;28;20379;-77
2022/06/15 01:33:18;;;;;;;10.77;8.00;;;;;;;;;;5053015;28;20520;-77
2022/06/15 01:35:56;;;;;;;8.30;7.60;;;;;;;;;;5053207;28;20467;-77
2022/06/15 01:38:39;;;;;;;8.37;7.57;;;;;;;;;;5053323;28;20994;-77
2022/06/15 01:41:08;;;;;;;10.57;8.50;;;;;;;;;;5053402;28;20813;-76
2022/06/15 01:43:37;;;;;;;10.03;8.23;;;;;;;;;;5053197;28;20400;-77
2022/06/15 01:46:04;;;;;;;8.90;8.00;;;;;;;;;;5053247;28;20424;-77
2022/06/15 01:48:31;;;;;;;8.77;7.97;;;;;;;;;;5053047;28;20408;-77
2022/06/15 01:50:59;;;;;;;14.70;9.07;;;;;;;;;;5053892;28;20807;-77
2022/06/15 01:53:25;;;;;;;8.00;7.00;;;;;;;;;;5053133;28;20433;-77
2022/06/15 01:55:51;;;;;;;9.53;7.93;;;;;;;;;;5053049;28;20858;-77
2022/06/15 01:58:18;;;;;;;12.23;7.77;;;;;;;;;;5053491;28;20404;-77
2022/06/15 02:00:51;;;;;;;9.73;8.10;;;;;;;;;;5053296;28;20412;-77
2022/06/15 02:03:19;;;;;;;9.47;7.57;;;;;;;;;;5053113;28;20492;-77
2022/06/15 02:05:50;;;;;;;10.00;8.50;;;;;;;;;;5053219;28;20489;-77
2022/06/15 02:08:20;;;;;;;9.47;7.57;;;;;;;;;;5051801;28;20424;-77
2022/06/15 02:11:03;;;;;;;9.27;8.30;;;;;;;;;;5052341;28;20423;-77
2022/06/15 02:13:32;;;;;;;9.13;8.20;;;;;;;;;;5052759;28;20741;-77
2022/06/15 02:16:04;;;;;;;8.33;7.53;;;;;;;;;;5052771;28;20554;-77
2022/06/15 02:18:32;;;;;;;8.67;7.87;;;;;;;;;;5053043;28;20419;-77
2022/06/15 02:21:00;;;;;;;12.90;8.07;;;;;;;;;;5053027;28;20401;-76
2022/06/15 02:23:28;;;;;;;11.77;9.37;;;;;;;;;;5052570;28;20416;-78
2022/06/15 02:25:56;;;;;;;13.30;8.50;;;;;;;;;;5052632;28;20795;-77
2022/06/15 02:28:24;;;;;;;8.70;7.80;;;;;;;;;;5052793;28;20447;-77
2022/06/15 02:30:50;;;;;;;11.87;8.30;;;;;;;;;;5052863;28;20408;-77
2022/06/15 02:33:30;;;;;;;11.17;8.43;;;;;;;;;;5052455;28;20424;-77
2022/06/15 02:35:57;;;;;;;10.30;9.30;;;;;;;;;;5052581;28;20467;-77
2022/06/15 02:38:24;;;;;;;10.23;8.50;;;;;;;;;;5052735;28;20408;-77
2022/06/15 02:40:50;;;;;;;10.53;9.23;;;;;;;;;;5052893;28;20862;-77
2022/06/15 02:43:20;;;;;;;13.10;9.53;;;;;;;;;;5052648;28;20498;-77
2022/06/15 02:45:47;;;;;;;10.20;9.20;;;;;;;;;;5052911;28;20465;-77
2022/06/15 02:48:14;;;;;;;11.50;9.90;;;;;;;;;;5052781;28;20413;-77
2022/06/15 02:50:42;;;;;;;12.80;9.77;;;;;;;;;;5052696;28;20458;-77
2022/06/15 02:53:11;;;;;;;10.53;8.90;;;;;;;;;;5052275;28;20501;-77
2022/06/15 02:55:38;;;;;;;12.03;8.90;;;;;;;;;;5052652;28;20440;-77
2022/06/15 02:58:04;;;;;;;16.13;9.90;;;;;;;;;;5052627;28;20391;-77
2022/06/15 03:00:30;;;;;;;13.77;9.50;;;;;;;;;;5052605;28;20415;-77
2022/06/15 03:02:56;;;;;;;14.73;10.10;;;;;;;;;;5052351;28;20477;-77
2022/06/15 03:05:22;;;;;;;11.43;10.33;;;;;;;;;;5052539;28;20472;-77
2022/06/15 03:07:48;;;;;;;16.87;10.03;;;;;;;;;;5052557;28;20848;-77
2022/06/15 03:10:14;;;;;;;10.83;9.73;;;;;;;;;;5052518;28;20491;-77
2022/06/15 03:12:40;;;;;;;18.93;11.93;;;;;;;;;;5052520;28;20440;-77
2022/06/15 03:15:06;;;;;;;11.77;10.57;;;;;;;;;;5051011;28;20998;-77
2022/06/15 03:17:32;;;;;;;12.10;10.53;;;;;;;;;;5052555;28;20820;-77
2022/06/15 03:19:58;;;;;;;11.57;10.33;;;;;;;;;;5052551;28;20413;-77
2022/06/15 03:22:24;;;;;;;10.67;9.57;;;;;;;;;;5053740;28;20383;-77
2022/06/15 03:24:50;;;;;;;9.80;8.80;;;;;;;;;;5055593;28;20477;-77
2022/06/15 03:27:18;;;;;;;9.20;8.30;;;;;;;;;;5055895;28;20409;-76
2022/06/15 03:29:44;;;;;;;14.48;8.43;;;;;;;;;;5055979;28;20561;-76
2022/06/15 03:32:14;;;;;;;9.90;7.93;;;;;;;;;;5055793;28;20197;-77
2022/06/15 03:34:40;;;;;;;11.90;8.53;;;;;;;;;;5055123;28;20460;-76
2022/06/15 03:37:06;;;;;;;10.30;9.27;;;;;;;;;;5055666;28;20495;-77
2022/06/15 03:39:32;;;;;;;11.60;9.57;;;;;;;;;;5054635;28;20408;-77
2022/06/15 03:42:08;;;;;;;16.70;9.60;;;;;;;;;;5055633;28;20459;-77
2022/06/15 03:44:34;;;;;;;15.67;10.17;;;;;;;;;;5053769;28;20483;-77
2022/06/15 03:47:00;;;;;;;12.27;10.50;;;;;;;;;;5055598;28;20639;-77
2022/06/15 03:49:26;;;;;;;11.33;10.23;;;;;;;;;;5055480;28;20416;-77
2022/06/15 03:51:52;;;;;;;13.30;11.33;;;;;;;;;;5055605;28;20420;-76
2022/06/15 03:54:18;;;;;;;10.80;9.67;;;;;;;;;;5054968;28;20392;-76
2022/06/15 03:56:46;;;;;;;11.30;10.10;;;;;;;;;;5055515;28;20471;-76
2022/06/15 03:59:13;;;;;;;15.10;11.67;;;;;;;;;;5055637;28;20885;-77
2022/06/15 04:01:39;;;;;;;12.30;10.37;;;;;;;;;;5055492;28;20416;-77
2022/06/15 04:04:05;;;;;;;14.13;10.77;;;;;;;;;;5055200;28;20439;-76
2022/06/15 04:06:32;;;;;;;13.77;10.60;;;;;;;;;;5055193;28;20421;-77
2022/06/15 04:08:58;;;;;;;13.83;10.90;;;;;;;;;;5055284;28;20416;-77
2022/06/15 04:14:10;;;;;;;11.27;10.10;;;;;;;;;;5053892;28;20411;-77
2022/06/15 04:16:36;;;;;;;11.23;9.90;;;;;;;;;;5054862;28;20459;-77
2022/06/15 04:19:03;;;;;;;10.60;9.50;;;;;;;;;;5053709;28;20420;-77
2022/06/15 04:21:30;;;;;;;12.53;11.23;;;;;;;;;;5054966;28;20467;-76
2022/06/15 04:23:56;;;;;;;12.87;10.83;;;;;;;;;;5053426;28;20417;-77
2022/06/15 04:26:22;;;;;;;13.37;10.50;;;;;;;;;;5054813;28;20515;-77
2022/06/15 04:28:48;;;;;;;12.73;10.67;;;;;;;;;;5054861;28;20826;-77
2022/06/15 04:31:14;;;;;;;12.23;10.93;;;;;;;;;;5054699;28;20824;-77
2022/06/15 04:33:40;;;;;;;13.07;11.70;;;;;;;;;;5053644;28;20539;-77
2022/06/15 04:36:06;;;;;;;14.93;10.90;;;;;;;;;;5054452;28;20460;-77
2022/06/15 04:38:32;;;;;;;12.13;10.70;;;;;;;;;;5053387;28;20413;-76
2022/06/15 04:40:58;;;;;;;14.00;11.80;;;;;;;;;;5053288;28;20884;-77
2022/06/15 04:43:24;;;;;;;13.27;11.87;;;;;;;;;;5054292;28;20412;-77
2022/06/15 04:45:51;;;;;;;14.03;11.93;;;;;;;;;;5054466;28;20861;-77
2022/06/15 04:48:16;;;;;;;16.83;10.93;;;;;;;;;;5054810;28;20979;-77
2022/06/15 04:50:43;;;;;;;15.13;11.67;;;;;;;;;;5054767;28;20491;-77
2022/06/15 04:53:09;;;;;;;13.17;11.27;;;;;;;;;;5053962;28;20829;-77
2022/06/15 04:55:35;;;;;;;12.33;10.87;;;;;;;;;;5054192;28;20433;-77
2022/06/15 04:58:02;;;;;;;16.47;11.70;;;;;;;;;;5054148;28;20551;-76
2022/06/15 05:00:35;;;;;;;20.00;11.40;;;;;;;;;;5052823;28;20424;-77
2022/06/15 05:03:01;;;;;;;13.80;11.07;;;;;;;;;;5053819;28;20861;-77
2022/06/15 05:05:27;;;;;;;16.43;12.47;;;;;;;;;;5054390;28;20425;-77
2022/06/15 05:07:53;;;;;;;17.63;12.37;;;;;;;;;;5054095;28;20908;-77
2022/06/15 05:10:21;;;;;;;13.73;12.30;;;;;;;;;;5054146;28;20413;-77
2022/06/15 05:12:47;;;;;;;14.93;13.37;;;;;;;;;;5054054;28;20487;-77
2022/06/15 05:15:15;;;;;;;13.70;12.17;;;;;;;;;;5053820;28;20905;-77
2022/06/15 05:17:41;;;;;;;14.33;12.77;;;;;;;;;;5053890;28;20491;-77
2022/06/15 05:20:11;;;;;;;18.17;11.87;;;;;;;;;;5053814;28;20413;-77
2022/06/15 05:22:37;;;;;;;13.50;12.20;;;;;;;;;;5053738;28;20376;-77
2022/06/15 05:25:07;;;;;;;15.87;12.07;;;;;;;;;;5053146;28;20399;-77
2022/06/15 05:27:33;;;;;;;12.63;11.43;;;;;;;;;;5053699;28;20917;-77
2022/06/15 05:29:59;;;;;;;13.10;11.67;;;;;;;;;;5053791;28;20413;-77
2022/06/15 05:32:25;;;;;;;13.67;11.63;;;;;;;;;;5053605;28;20432;-77
2022/06/15 05:34:51;;;;;;;12.17;10.17;;;;;;;;;;5053171;28;20437;-77
2022/06/15 05:37:17;;;;;;;14.03;11.20;;;;;;;;;;5051968;28;20550;-76
2022/06/15 05:39:43;;;;;;;13.70;11.00;;;;;;;;;;5053368;28;20415;-77
2022/06/15 05:42:09;;;;;;;18.00;11.77;;;;;;;;;;5053326;28;20913;-77
2022/06/15 05:44:53;;;;;;;12.50;10.70;;;;;;;;;;5051710;28;20519;-77
2022/06/15 05:47:18;;;;;;;13.60;12.20;;;;;;;;;;5053338;28;20397;-77
2022/06/15 05:49:44;;;;;;;20.00;12.47;;;;;;;;;;5053288;28;20412;-77
2022/06/15 05:52:11;;;;;;;20.07;12.10;;;;;;;;;;5053247;28;20912;-77
2022/06/15 05:54:37;;;;;;;14.97;12.67;;;;;;;;;;5052967;28;20848;-76
2022/06/15 05:57:08;;;;;;;14.97;12.80;;;;;;;;;;5053452;28;20793;-77
2022/06/15 05:59:34;;;;;;;22.40;13.03;;;;;;;;;;5053367;28;20380;-77
2022/06/15 06:02:00;;;;;;;16.40;12.87;;;;;;;;;;5053434;28;20425;-77
2022/06/15 06:04:26;;;;;;;17.10;10.87;;;;;;;;;;5052687;28;20411;-77
2022/06/15 06:06:52;;;;;;;14.03;11.30;;;;;;;;;;5053218;28;20419;-76
2022/06/15 06:09:18;;;;;;;12.53;11.20;;;;;;;;;;5053212;28;20416;-77
2022/06/15 06:11:44;;;;;;;10.87;9.77;;;;;;;;;;5051585;28;20420;-77
2022/06/15 06:14:10;;;;;;;13.73;11.60;;;;;;;;;;5046464;28;20937;-77
2022/06/15 06:16:36;;;;;;;13.63;10.37;;;;;;;;;;5053032;28;20434;-77
2022/06/15 06:19:02;;;;;;;10.87;9.83;;;;;;;;;;5053113;28;20409;-77
2022/06/15 06:21:28;;;;;;;12.97;10.23;;;;;;;;;;5052968;28;20383;-77
2022/06/15 06:23:54;;;;;;;11.70;10.10;;;;;;;;;;5050354;28;20798;-77
2022/06/15 06:26:25;;;;;;;16.23;10.47;;;;;;;;;;5035447;28;20403;-76
2022/06/15 06:28:51;;;;;;;13.13;10.53;;;;;;;;;;5032942;28;20431;-77
2022/06/15 06:31:20;;;;;;;10.60;9.07;;;;;;;;;;5033013;28;20405;-77
2022/06/15 06:33:46;;;;;;;13.13;9.10;;;;;;;;;;5033130;28;20818;-77
2022/06/15 06:36:19;;;;;;;10.60;9.50;;;;;;;;;;5046717;28;20502;-77
2022/06/15 06:38:45;;;;;;;13.63;8.57;;;;;;;;;;5052681;28;20407;-77
2022/06/15 06:41:11;;;;;;;11.17;8.60;;;;;;;;;;5052860;28;20522;-77
2022/06/15 06:43:37;;;;;;;12.90;8.50;;;;;;;;;;5052479;28;20387;-77
2022/06/15 06:46:04;;;;;;;10.57;8.20;;;;;;;;;;5052535;28;20835;-77
2022/06/15 06:48:30;;;;;;;11.33;9.10;;;;;;;;;;5052880;28;20387;-77
2022/06/15 06:50:56;;;;;;;12.70;8.90;;;;;;;;;;5052952;28;20431;-77
2022/06/15 06:53:22;;;;;;;13.67;8.20;;;;;;;;;;5052579;28;20426;-77
2022/06/15 06:55:48;;;;;;;9.67;8.63;;;;;;;;;;5052746;28;20531;-77
2022/06/15 06:58:14;;;;;;;7.57;6.70;;;;;;;;;;5055616;28;20489;-77
2022/06/15 07:00:40;;;;;;;6.60;5.73;;;;;;;;;;5054823;28;20398;-74
2022/06/15 07:03:06;;;;;;;5.40;4.43;;;;;;;;;;5044925;28;20804;-74
2022/06/15 07:05:36;;;;;;;10.43;4.60;;;;;;;;;;5056599;28;20435;-74
2022/06/15 07:08:04;;;;;;;7.33;4.30;;;;;;;;;;5056302;28;20415;-74
2022/06/15 07:10:30;;;;;;;11.03;4.07;;;;;;;;;;5056134;28;20757;-74
2022/06/15 07:12:56;;;;;;;10.23;4.47;;;;;;;;;;5055727;28;20415;-74
2022/06/15 07:15:22;;;;;;;5.30;3.43;;;;;;;;;;5056288;28;20444;-74
2022/06/15 07:17:48;;;;;;;7.70;3.83;;;;;;;;;;5056266;28;20464;-74
2022/06/15 07:20:14;;;;;;;5.67;3.40;;;;;;;;;;5056229;28;20834;-73
2022/06/15 07:22:40;;;;;;;8.20;4.13;;;;;;;;;;5056211;28;20378;-74
2022/06/15 07:25:08;;;;;;;6.97;4.40;;;;;;;;;;5055706;28;20424;-74
2022/06/15 07:27:35;;;;;;;7.53;4.13;;;;;;;;;;5056178;28;20408;-74
2022/06/15 07:30:02;;;;;;;4.77;3.63;;;;;;;;;;5055878;28;20395;-74
2022/06/15 07:32:28;;;;;;;5.63;3.63;;;;;;;;;;5055618;28;20778;-74
2022/06/15 07:34:54;;;;;;;9.50;3.43;;;;;;;;;;5055433;28;20403;-74
2022/06/15 07:37:20;;;;;;;11.43;4.00;;;;;;;;;;5055668;28;20673;-74
2022/06/15 07:39:46;;;;;;;7.50;3.97;;;;;;;;;;5055777;28;20416;-74
2022/06/15 07:42:12;;;;;;;4.47;3.47;;;;;;;;;;5055525;28;20457;-75
2022/06/15 07:44:38;;;;;;;5.80;3.97;;;;;;;;;;5055410;28;20738;-74
2022/06/15 07:49:57;;;;;;;8.00;3.87;;;;;;;;;;5056035;28;20394;-76
2022/06/15 07:52:24;;;;;;;9.43;3.80;;;;;;;;;;5054436;28;20876;-77
2022/06/15 07:54:50;;;;;;;4.70;4.20;;;;;;;;;;5055088;28;21276;-77
2022/06/15 07:57:17;;;;;;;8.50;4.13;;;;;;;;;;5055193;28;20423;-77
2022/06/15 07:59:43;;;;;;;4.40;4.00;;;;;;;;;;5054207;28;20897;-77
2022/06/15 08:02:09;;;;;;;6.30;4.10;;;;;;;;;;5054235;28;20503;-75
2022/06/15 08:04:35;;;;;;;6.37;3.63;;;;;;;;;;5054971;28;20512;-76
2022/06/15 08:07:02;;;;;;;7.00;4.00;;;;;;;;;;5055571;28;20435;-75
2022/06/15 08:09:28;;;;;;;8.80;4.10;;;;;;;;;;5054347;28;20416;-74
2022/06/15 08:12:12;;;;;;;4.83;3.10;;;;;;;;;;5055476;28;20394;-74
2022/06/15 08:14:44;;;;;;;6.27;3.50;;;;;;;;;;5054871;28;20471;-75
2022/06/15 08:17:21;;;;;;;6.13;3.20;;;;;;;;;;5055069;28;21035;-76
2022/06/15 08:19:49;;;;;;;3.30;2.93;;;;;;;;;;5054464;28;20409;-77
2022/06/15 08:22:15;;;;;;;7.57;3.20;;;;;;;;;;5040593;28;20413;-77
2022/06/15 08:24:42;;;;;;;4.43;2.87;;;;;;;;;;5034516;28;20429;-76
2022/06/15 08:27:10;;;;;;;4.07;3.17;;;;;;;;;;5042561;28;20937;-76
2022/06/15 08:29:37;;;;;;;7.80;3.03;;;;;;;;;;5055087;28;20417;-77
2022/06/15 08:32:04;;;;;;;3.53;2.73;;;;;;;;;;5051990;28;20533;-77
2022/06/15 08:34:32;;;;;;;6.63;2.50;;;;;;;;;;5054441;28;20830;-77
2022/06/15 08:36:58;;;;;;;12.63;2.83;;;;;;;;;;5053012;28;20985;-77
2022/06/15 08:39:24;;;;;;;10.30;2.93;;;;;;;;;;5054422;28;20409;-77
2022/06/15 08:41:57;;;;;;;4.57;2.10;;;;;;;;;;5037363;28;20425;-76
2022/06/15 08:44:45;;;;;;;4.80;2.27;;;;;;;;;;5051450;28;20456;-76
2022/06/15 08:47:19;;;;;;;8.73;3.30;;;;;;;;;;5054497;28;20397;-77
2022/06/15 08:49:48;;;;;;;6.70;3.87;;;;;;;;;;5050429;28;20429;-75
2022/06/15 08:52:25;;;;;;;5.77;3.10;;;;;;;;;;5034496;28;20413;-76
2022/06/15 08:54:51;;;;;;;5.13;3.17;;;;;;;;;;5034104;28;20480;-76
2022/06/15 08:57:40;;;;;;;5.80;2.70;;;;;;;;;;5034196;28;20990;-76
2022/06/15 09:00:15;;;;;;;6.37;3.43;;;;;;;;;;5023694;28;20490;-76
2022/06/15 09:02:50;;;;;;;5.93;3.30;;;;;;;;;;5034730;28;20416;-76
2022/06/15 09:05:31;;;;;;;7.10;3.20;;;;;;;;;;5034057;28;20525;-76
2022/06/15 09:07:58;;;;;;;8.10;3.40;;;;;;;;;;5034410;28;20424;-77
2022/06/15 09:10:33;;;;;;;6.80;3.17;;;;;;;;;;5034478;28;20761;-75
2022/06/15 09:13:02;;;;;;;5.80;3.00;;;;;;;;;;5033851;28;20818;-78
2022/06/15 09:15:47;;;;;;;7.10;3.70;;;;;;;;;;5033902;28;20528;-74
2022/06/15 09:18:18;;;;;;;7.37;3.63;;;;;;;;;;5034001;28;20431;-74
2022/06/15 09:20:47;;;;;;;6.20;3.27;;;;;;;;;;5033921;28;20410;-78
2022/06/15 09:23:20;;;;;;;7.93;3.13;;;;;;;;;;5033706;28;20417;-76
2022/06/15 09:25:58;;;;;;;5.57;2.80;;;;;;;;;;5034071;28;20433;-75
2022/06/15 09:28:30;;;;;;;4.23;2.70;;;;;;;;;;5034057;28;20405;-77
2022/06/15 09:31:01;;;;;;;4.70;2.90;;;;;;;;;;5034439;28;20476;-77
2022/06/15 09:33:36;;;;;;;5.20;3.20;;;;;;;;;;5033374;28;20786;-76
2022/06/15 09:36:29;;;;;;;7.77;2.90;;;;;;;;;;5033691;28;20475;-76
2022/06/15 09:38:55;;;;;;;4.17;3.10;;;;;;;;;;5032736;28;20441;-75
2022/06/15 09:41:39;;;;;;;3.77;2.47;;;;;;;;;;5032194;28;20779;-76
2022/06/15 09:44:06;;;;;;;5.07;2.60;;;;;;;;;;5033160;28;20494;-77
2022/06/15 09:46:43;;;;;;;3.10;2.10;;;;;;;;;;5033643;28;20500;-75
2022/06/15 09:49:27;;;;;;;4.53;2.77;;;;;;;;;;5032330;28;20833;-77
2022/06/15 09:52:00;;;;;;;4.80;2.40;;;;;;;;;;5033541;28;20890;-74
2022/06/15 09:54:45;;;;;;;4.30;2.33;;;;;;;;;;5033361;28;20436;-76
2022/06/15 09:57:11;;;;;;;8.03;2.30;;;;;;;;;;5033216;28;20473;-78
2022/06/15 09:59:38;;;;;;;3.77;2.60;;;;;;;;;;5031618;28;20796;-73
2022/06/15 10:02:05;;;;;;;7.67;2.60;;;;;;;;;;5033443;28;20872;-77
2022/06/15 10:04:32;;;;;;;4.80;2.57;;;;;;;;;;5031787;28;20456;-78
2022/06/15 10:07:01;;;;;;;4.20;2.80;;;;;;;;;;5033459;28;20405;-75
2022/06/15 10:09:28;;;;;;;4.70;2.63;;;;;;;;;;5034016;28;20939;-75
2022/06/15 10:11:56;;;;;;;3.73;2.60;;;;;;;;;;5044315;28;20414;-76
2022/06/15 10:14:25;;;;;;;4.33;2.30;;;;;;;;;;5032862;28;20409;-75
2022/06/15 10:16:53;;;;;;;4.53;2.27;;;;;;;;;;5048436;28;20456;-75
2022/06/15 10:19:19;;;;;;;7.90;2.40;;;;;;;;;;5033543;28;20467;-75
2022/06/15 10:21:51;;;;;;;3.60;2.03;;;;;;;;;;5033098;28;20437;-79
2022/06/15 10:24:17;;;;;;;7.00;2.50;;;;;;;;;;5032721;28;20402;-78
2022/06/15 10:26:51;;;;;;;8.80;3.33;;;;;;;;;;5044774;28;20470;-78
2022/06/15 10:29:23;;;;;;;6.00;2.50;;;;;;;;;;5038718;28;20440;-74
2022/06/15 10:32:01;;;;;;;3.97;2.30;;;;;;;;;;5036320;28;20490;-77
2022/06/15 10:34:31;;;;;;;6.40;2.27;;;;;;;;;;5047854;28;20441;-77
2022/06/15 10:36:59;;;;;;;4.20;1.97;;;;;;;;;;5037235;28;20822;-77
2022/06/15 10:39:26;;;;;;;6.20;2.30;;;;;;;;;;5048291;28;20417;-77
2022/06/15 10:41:58;;;;;;;3.60;2.07;;;;;;;;;;5038036;28;20432;-78
2022/06/15 10:44:31;;;;;;;4.50;2.10;;;;;;;;;;5036353;28;20945;-78
2022/06/15 10:47:08;;;;;;;4.50;2.50;;;;;;;;;;5036760;28;20418;-75
2022/06/15 10:49:36;;;;;;;5.10;2.40;;;;;;;;;;5036651;28;20456;-74
2022/06/15 10:52:03;;;;;;;5.77;2.10;;;;;;;;;;5036542;28;20855;-75
2022/06/15 10:54:32;;;;;;;3.60;2.23;;;;;;;;;;5036417;28;20432;-75
2022/06/15 11:02:44;;;;;;;4.23;2.00;;;;;;;;;;5037019;28;20408;-75
2022/06/15 11:05:10;;;;;;;7.37;2.00;;;;;;;;;;5035205;28;20755;-77
2022/06/15 11:08:08;;;;;;;3.97;2.20;;;;;;;;;;5035846;28;20432;-76
2022/06/15 11:10:37;;;;;;;3.57;2.00;;;;;;;;;;5012927;28;20429;-79
2022/06/15 11:13:26;;;;;;;6.70;2.13;;;;;;;;;;5032132;28;20414;-76
2022/06/15 11:18:39;;;;;;;2.83;1.80;;;;;;;;;;5037109;28;20772;-76
2022/06/15 11:21:08;;;;;;;5.20;1.97;;;;;;;;;;5044986;28;20428;-75
2022/06/15 11:23:37;;;;;;;11.07;2.10;;;;;;;;;;5040602;28;20519;-75
2022/06/15 11:26:51;;;;;;;4.23;2.10;;;;;;;;;;5042490;28;20429;-76
2022/06/15 11:28:55;;;;;;;4.10;2.30;;;;;;;;;;5040870;28;20432;-76
2022/06/15 11:31:21;;;;;;;2.83;1.80;;;;;;;;;;5044735;28;20459;-76
2022/06/15 11:33:53;;;;;;;5.03;2.23;;;;;;;;;;5044118;28;20502;-76
2022/06/15 11:36:43;;;;;;;7.23;2.40;;;;;;;;;;5043607;28;21109;-76
2022/06/15 11:39:18;;;;;;;5.07;1.77;;;;;;;;;;5046420;28;20447;-76
2022/06/15 11:41:47;;;;;;;4.30;1.80;;;;;;;;;;5044898;28;20401;-77
2022/06/15 11:44:19;;;;;;;5.53;2.33;;;;;;;;;;5041161;28;20911;-76
2022/06/15 11:46:49;;;;;;;3.30;1.63;;;;;;;;;;5046527;28;20421;-77
2022/06/15 11:49:33;;;;;;;3.20;1.67;;;;;;;;;;5055648;28;20818;-76
2022/06/15 11:52:06;;;;;;;6.67;2.00;;;;;;;;;;5054401;28;20504;-75
2022/06/15 11:54:44;;;;;;;3.33;1.70;;;;;;;;;;5054677;28;20486;-78
2022/06/15 11:57:28;;;;;;;6.43;2.50;;;;;;;;;;5053925;28;20478;-76
2022/06/15 12:00:04;;;;;;;4.73;1.90;;;;;;;;;;5053455;28;20432;-76
2022/06/15 12:02:33;;;;;;;7.03;2.30;;;;;;;;;;5043671;28;20443;-76
2022/06/15 12:05:05;;;;;;;2.50;1.60;;;;;;;;;;5044388;28;20993;-75
2022/06/15 12:07:45;;;;;;;3.03;1.87;;;;;;;;;;5045903;28;20413;-76
2022/06/15 12:10:11;;;;;;;5.30;1.70;;;;;;;;;;5045101;28;20495;-75
2022/06/15 12:12:44;;;;;;;4.67;2.03;;;;;;;;;;5037363;28;20529;-76
2022/06/15 12:15:29;;;;;;;6.10;2.20;;;;;;;;;;5034850;28;20441;-76
2022/06/15 12:18:04;;;;;;;3.30;2.00;;;;;;;;;;5033533;28;20987;-75
2022/06/15 12:20:30;;;;;;;4.50;2.07;;;;;;;;;;5034744;28;20488;-75
2022/06/15 12:23:16;;;;;;;2.70;2.00;;;;;;;;;;5043981;28;20981;-75
2022/06/15 12:26:00;;;;;;;3.87;2.00;;;;;;;;;;5046080;28;20437;-76
2022/06/15 12:28:38;;;;;;;3.53;1.90;;;;;;;;;;5052777;28;20463;-76
2022/06/15 12:31:10;;;;;;;4.30;2.07;;;;;;;;;;5052949;28;20412;-75
2022/06/15 12:33:39;;;;;;;2.90;1.70;;;;;;;;;;5053604;28;20464;-75
2022/06/15 12:36:16;;;;;;;1.80;1.50;;;;;;;;;;5054363;28;20468;-75
2022/06/15 12:38:51;;;;;;;3.53;1.87;;;;;;;;;;5052714;28;20460;-76
2022/06/15 12:44:05;;;;;;;3.80;2.03;;;;;;;;;;5034118;28;20484;-75
2022/06/15 12:46:32;;;;;;;3.57;1.97;;;;;;;;;;5034046;28;20869;-73
2022/06/15 12:49:18;;;;;;;5.97;1.70;;;;;;;;;;5034458;28;20417;-73
2022/06/15 12:51:44;;;;;;;4.30;1.90;;;;;;;;;;5033183;28;20785;-75
2022/06/15 12:54:29;;;;;;;7.10;2.03;;;;;;;;;;5033697;28;20412;-75
2022/06/15 12:57:01;;;;;;;5.50;2.20;;;;;;;;;;5033638;28;21321;-75
2022/06/15 12:59:27;;;;;;;3.20;2.00;;;;;;;;;;5033921;28;20488;-75
2022/06/15 13:02:12;;;;;;;3.07;1.80;;;;;;;;;;5033978;28;20435;-74
2022/06/15 13:04:41;;;;;;;4.60;1.90;;;;;;;;;;5033759;28;20537;-75
2022/06/15 13:07:19;;;;;;;4.73;2.30;;;;;;;;;;5033853;28;20418;-75
2022/06/15 13:10:03;;;;;;;4.73;2.00;;;;;;;;;;5033876;28;20413;-75
2022/06/15 13:12:46;;;;;;;5.67;2.13;;;;;;;;;;5032573;28;21136;-76
2022/06/15 13:15:30;;;;;;;5.03;1.97;;;;;;;;;;5033367;28;20425;-75
2022/06/15 13:18:22;;;;;;;3.00;1.80;;;;;;;;;;5033538;28;20460;-76
2022/06/15 13:20:48;;;;;;;5.97;2.00;;;;;;;;;;5033741;28;20456;-76
2022/06/15 13:23:23;;;;;;;6.27;2.40;;;;;;;;;;5033293;28;20402;-75
2022/06/15 13:25:54;;;;;;;3.67;1.80;;;;;;;;;;5033686;28;20422;-75
2022/06/15 13:28:26;;;;;;;3.23;1.80;;;;;;;;;;5033347;28;20410;-75
2022/06/15 13:30:54;;;;;;;2.13;1.80;;;;;;;;;;5033454;28;20493;-74
2022/06/15 13:33:21;;;;;;;3.30;1.87;;;;;;;;;;5032001;28;20925;-75
2022/06/15 13:36:07;;;;;;;4.07;1.97;;;;;;;;;;5033145;28;20436;-74
2022/06/15 13:38:34;;;;;;;3.63;2.30;;;;;;;;;;5038373;28;20400;-74
2022/06/15 13:41:00;;;;;;;3.70;2.00;;;;;;;;;;5045412;28;20423;-74
2022/06/15 13:43:46;;;;;;;2.90;1.70;;;;;;;;;;5052312;28;20432;-74
2022/06/15 13:46:28;;;;;;;4.17;2.13;;;;;;;;;;5050304;28;20482;-74
2022/06/15 13:48:58;;;;;;;4.77;2.00;;;;;;;;;;5032550;28;20409;-74
2022/06/15 13:51:34;;;;;;;3.57;1.87;;;;;;;;;;5036179;28;20897;-75
2022/06/15 13:54:09;;;;;;;4.37;2.10;;;;;;;;;;5037323;28;20424;-74
2022/06/15 13:56:38;;;;;;;4.70;2.47;;;;;;;;;;5032789;28;20870;-76
2022/06/15 13:59:04;;;;;;;4.87;1.93;;;;;;;;;;5034311;28;20448;-76
2022/06/15 14:01:49;;;;;;;5.40;2.30;;;;;;;;;;5032544;28;20438;-75
2022/06/15 14:04:19;;;;;;;5.23;1.83;;;;;;;;;;5032883;28;20402;-76
2022/06/15 14:06:48;;;;;;;4.87;2.23;;;;;;;;;;5030897;28;20471;-76
2022/06/15 14:09:33;;;;;;;2.20;1.83;;;;;;;;;;5032860;28;20771;-76
2022/06/15 14:12:12;;;;;;;6.97;2.47;;;;;;;;;;5032947;28;20773;-76
2022/06/15 14:14:50;;;;;;;6.00;2.57;;;;;;;;;;5035267;28;20801;-75
2022/06/15 14:17:25;;;;;;;5.60;2.33;;;;;;;;;;5041605;28;20543;-76
2022/06/15 14:19:56;;;;;;;3.30;2.17;;;;;;;;;;5031670;28;20504;-76
2022/06/15 14:22:23;;;;;;;4.20;2.10;;;;;;;;;;5032983;28;20768;-76
2022/06/15 14:24:59;;;;;;;4.60;2.30;;;;;;;;;;5031962;28;20628;-76
2022/06/15 14:27:27;;;;;;;5.60;2.40;;;;;;;;;;5031355;28;20433;-75
2022/06/15 14:29:53;;;;;;;4.17;2.03;;;;;;;;;;5032642;28;20906;-76
2022/06/15 14:32:34;;;;;;;5.13;2.40;;;;;;;;;;5014859;28;20799;-75
2022/06/15 14:35:20;;;;;;;2.83;1.60;;;;;;;;;;5032586;28;20426;-76
2022/06/15 14:37:50;;;;;;;3.90;2.13;;;;;;;;;;5032366;28;20554;-75
2022/06/15 14:40:34;;;;;;;6.60;2.57;;;;;;;;;;5032690;28;20398;-76
2022/06/15 14:43:01;;;;;;;4.20;2.40;;;;;;;;;;5031515;28;20425;-76
2022/06/15 14:45:29;;;;;;;6.07;2.50;;;;;;;;;;5030549;28;20841;-76
2022/06/15 14:47:57;;;;;;;4.37;2.20;;;;;;;;;;5032495;28;20424;-77
2022/06/15 14:50:24;;;;;;;3.93;2.07;;;;;;;;;;5032448;28;20413;-77
2022/06/15 14:52:50;;;;;;;5.60;2.20;;;;;;;;;;5031114;28;20414;-76
2022/06/15 14:55:25;;;;;;;5.87;2.50;;;;;;;;;;5031130;28;20441;-76
2022/06/15 14:58:06;;;;;;;3.27;2.30;;;;;;;;;;5031960;28;20464;-75
2022/06/15 15:00:34;;;;;;;5.03;2.30;;;;;;;;;;5030044;28;20920;-76
2022/06/15 15:03:00;;;;;;;4.60;2.17;;;;;;;;;;5032007;28;20804;-77
2022/06/15 15:05:34;;;;;;;4.27;2.40;;;;;;;;;;5031761;28;20859;-74
2022/06/15 15:08:19;;;;;;;4.50;2.20;;;;;;;;;;5034759;28;20992;-75
2022/06/15 15:10:45;;;;;;;5.10;2.17;;;;;;;;;;5041091;28;20483;-75